createdAt,value
2023-02-05T00:04:34.845Z,101873.06
2023-02-05T00:14:38.724Z,101872.56
2023-02-05T00:24:42.507Z,101876.35
2023-02-05T00:34:46.359Z,101871.88
2023-02-05T00:44:50.207Z,101870.49
2023-02-05T00:54:54.053Z,101860.68
2023-02-05T01:04:58.095Z,101852.23
2023-02-05T01:15:08.996Z,101840.33
2023-02-05T01:25:13.316Z,101835.17
2023-02-05T01:35:17.246Z,101831.17
2023-02-05T01:45:29.854Z,101840.92
2023-02-05T01:55:56.754Z,101846.57
2023-02-05T02:06:05.070Z,101848.09
2023-02-05T02:16:09.468Z,101851.17
2023-02-05T02:26:22.648Z,101847.38
2023-02-05T02:36:32.432Z,101855.08
2023-02-05T02:46:41.897Z,101867.84
2023-02-05T02:56:49.447Z,101865.03
2023-02-05T03:06:58.090Z,101861.23
2023-02-05T03:17:04.113Z,101865.23
2023-02-05T03:27:08.334Z,101872.19
2023-02-05T03:37:31.596Z,101874.39
2023-02-05T03:48:01.666Z,101875.15
2023-02-05T03:58:17.833Z,101877.48
2023-02-05T04:08:22.942Z,101880.21
2023-02-05T04:18:28.637Z,101885.69
2023-02-05T04:28:33.230Z,101899.69
2023-02-05T04:38:38.440Z,101908.45
2023-02-05T04:48:42.096Z,101915.01
2023-02-05T04:58:46.621Z,101905.52
2023-02-05T05:08:50.721Z,101902.95
2023-02-05T05:18:54.638Z,101897.62
2023-02-05T05:29:26.090Z,101896.90
2023-02-05T05:39:48.814Z,101919.86
2023-02-05T05:50:33.484Z,101917.10
2023-02-05T06:00:39.170Z,101915.20
2023-02-05T06:10:49.812Z,101918.59
2023-02-05T06:21:06.129Z,101921.64
2023-02-05T06:31:12.470Z,101927.41
2023-02-05T06:41:16.752Z,101931.89
2023-02-05T06:51:20.950Z,101936.42
2023-02-05T07:01:24.868Z,101952.70
2023-02-05T07:11:28.710Z,101958.84
2023-02-05T07:21:33.170Z,101967.98
2023-02-05T07:32:01.166Z,101990.96
2023-02-05T07:42:05.523Z,101999.48
2023-02-05T07:52:14.067Z,102025.19
2023-02-05T08:02:18.411Z,102028.60
2023-02-05T08:12:22.528Z,102033.55
2023-02-05T08:22:26.381Z,102041.95
2023-02-05T08:32:30.375Z,102049.78
2023-02-05T08:42:36.937Z,102057.38
2023-02-05T08:52:41.602Z,102071.11
2023-02-05T09:02:45.412Z,102072.73
2023-02-05T09:12:52.204Z,102083.96
2023-02-05T09:22:56.018Z,102073.45
2023-02-05T09:32:59.915Z,102066.33
2023-02-05T09:43:07.943Z,102076.86
2023-02-05T09:53:18.219Z,102069.61
2023-02-05T10:03:28.267Z,102056.55
2023-02-05T10:13:45.313Z,102045.02
2023-02-05T10:24:32.446Z,102045.50
2023-02-05T10:34:49.579Z,102033.44
2023-02-05T10:45:25.529Z,102029.81
2023-02-05T10:55:29.488Z,102035.65
2023-02-05T11:05:40.733Z,102038.77
2023-02-05T11:16:00.996Z,102040.89
2023-02-05T11:26:18.316Z,102032.77
2023-02-05T11:36:25.478Z,102027.48
2023-02-05T11:46:42.940Z,102021.39
2023-02-05T11:57:05.616Z,102014.64
2023-02-05T12:07:15.818Z,102011.19
2023-02-05T12:17:34.993Z,102017.50
2023-02-05T12:28:00.247Z,102015.02
2023-02-05T12:38:38.325Z,102005.83
2023-02-05T12:49:10.619Z,102004.91
2023-02-05T12:59:33.299Z,102006.00
2023-02-05T13:09:54.109Z,102001.31
2023-02-05T13:20:18.176Z,102001.61
2023-02-05T13:30:28.613Z,101991.85
2023-02-05T13:40:44.107Z,101991.30
2023-02-05T13:50:57.004Z,101991.50
2023-02-05T14:01:32.288Z,101987.44
2023-02-05T14:11:58.340Z,101984.85
2023-02-05T14:22:07.644Z,102005.61
2023-02-05T14:32:39.842Z,101997.48
2023-02-05T14:42:43.482Z,101998.04
2023-02-05T14:52:54.315Z,102005.73
2023-02-05T15:03:01.054Z,102007.85
2023-02-05T15:13:15.415Z,102002.98
2023-02-05T15:23:46.650Z,102005.27
2023-02-05T15:34:20.825Z,102013.96
2023-02-05T15:44:30.434Z,102029.04
2023-02-05T15:54:37.154Z,102026.48
2023-02-05T16:04:41.169Z,102027.88
2023-02-05T16:14:45.024Z,102029.69
2023-02-05T16:24:51.903Z,102031.91
2023-02-05T16:34:56.841Z,102050.86
2023-02-05T16:45:21.904Z,102055.22
2023-02-05T16:55:26.122Z,102069.91
2023-02-05T17:05:35.816Z,102082.10
2023-02-05T17:15:40.721Z,102102.73
2023-02-05T17:25:47.233Z,102107.04
2023-02-05T17:35:51.751Z,102101.84
2023-02-05T17:45:55.475Z,102092.48
2023-02-05T17:55:59.393Z,102091.45
2023-02-05T18:06:03.338Z,102093.73
2023-02-05T18:16:07.698Z,102091.14
2023-02-05T18:26:11.768Z,102086.08
2023-02-05T18:36:15.822Z,102083.02
2023-02-05T18:46:21.462Z,102085.09
2023-02-05T18:56:27.954Z,102079.20
2023-02-05T19:06:33.340Z,102078.85
2023-02-05T19:16:40.167Z,102087.08
